Ginga — JJ4054 — position and weather

sailwx.info

Track history (hours):
 
Tides and Currents Weather Stations Pressure Air Temp Water Temp Dewpoint Dewpoint Depression Visibility Wind Speed Wind Dir Waves Ship Positions

Ginga

Last reported at 2016-Jul-25 01:33 UTC. Time now 2016-Jul-25 14:00 UTC.
Position N 34°39' E 135°10'.

Length 28 m; draft 1.6 m.

Type: Other ship. MMSI: 431301704.

Date/timePositionNaut miles runAvg speedWind from/ knotsBaromVisibWave heightAir tempDewpointWater temp
2016-Jul-25 01:33N 34°39' E 135°10'10 3.3
2016-Jul-24 22:31N 34°37' E 134°58'7 7.1
2016-Jul-24 21:33N 34°35' E 135°06'5 4.9
2016-Jul-24 20:33N 34°38' E 135°10'1 0.0
2016-Jul-23 22:20N 34°39' E 135°09'1012.2
2016-Jul-23 21:33N 34°38' E 134°58'7 7.4
2016-Jul-23 20:33N 34°35' E 135°06'4 4.4
2016-Jul-23 19:33N 34°35' E 135°11'5 0.3
2016-Jul-23 04:17N 34°39' E 135°09'6 3.3
2016-Jul-23 02:30N 34°38' E 135°03'4 0.6
2016-Jul-22 19:33N 34°37' E 134°58'9 8.5
2016-Jul-22 18:33N 34°34' E 135°08'5 4.8
2016-Jul-22 17:33N 34°39' E 135°09'11 0.9
2016-Jul-22 04:16N 34°36' E 134°56'1 0.1
2016-Jul-21 19:32N 34°37' E 134°57'8 8.4
2016-Jul-21 18:32N 34°35' E 135°06'2 2.0
2016-Jul-21 17:34N 34°35' E 135°09'4 0.5
2016-Jul-21 08:09N 34°39' E 135°09'610.4
2016-Jul-21 07:32N 34°36' E 135°03'2 1.5
2016-Jul-21 06:22N 34°38' E 135°03'4 0.3
2016-Jul-20 19:28N 34°37' E 134°58'7 7.1
2016-Jul-20 18:32N 34°35' E 135°06'5 5.1
2016-Jul-20 17:33N 34°39' E 135°09'0 0.0
2016-Jul-20 04:32N 34°39' E 135°09'9 8.7
2016-Jul-20 03:33N 34°38' E 134°59'3 3.0
2016-Jul-20 02:33N 34°36' E 135°02'1 1.4
2016-Jul-20 01:32N 34°38' E 135°02'1 0.1
2016-Jul-19 20:11N 34°37' E 135°03'4 6.3
2016-Jul-19 19:33N 34°37' E 134°58'8 8.0
2016-Jul-19 18:33N 34°35' E 135°07'4 0.7
2016-Jul-19 12:33N 34°37' E 135°03'4 3.7
2016-Jul-19 11:24N 34°38' E 134°58'911.1
2016-Jul-19 10:33N 34°39' E 135°09'0 0.0
2016-Jul-19 03:16N 34°39' E 135°09'5 3.0
2016-Jul-19 01:33N 34°35' E 135°05'3 0.8
2016-Jul-18 22:17N 34°38' E 135°03'5 7.0
2016-Jul-18 21:31N 34°36' E 134°57'0 0.1
2016-Jul-18 18:29N 34°37' E 134°57'7 7.8
2016-Jul-18 17:33N 34°35' E 135°05'5 5.0
2016-Jul-18 16:33N 34°39' E 135°09'0 0.0
2016-Jul-17 20:15N 34°39' E 135°09'811.4
2016-Jul-17 19:30N 34°38' E 134°59'7 7.3
2016-Jul-17 18:33N 34°35' E 135°07'2 2.3
2016-Jul-17 17:33N 34°36' E 135°09'3 3.5
2016-Jul-17 16:33N 34°39' E 135°09'2 0.0
2016-Jul-16 03:34N 34°40' E 135°11'8 8.3
2016-Jul-16 02:32N 34°36' E 135°02'2 0.2
2016-Jul-15 19:16N 34°37' E 135°03'2 2.0
2016-Jul-15 18:29N 34°37' E 135°01'7 7.4
2016-Jul-15 17:33N 34°38' E 135°10'1 0.1
2016-Jul-15 09:33N 34°37' E 135°09'15 7.4
2016-Jul-15 07:28N 34°23' E 135°02'1314.5
2016-Jul-15 06:33N 34°31' E 135°15'9 8.4
2016-Jul-15 05:32N 34°33' E 135°25'0 0.5
2016-Jul-15 04:31N 34°33' E 135°25'1313.5
2016-Jul-15 03:33N 34°36' E 135°10'  
Track history (hours):
 
Tides and Currents Weather Stations Pressure Air Temp Water Temp Dewpoint Dewpoint Depression Visibility Wind Speed Wind Dir Waves Ship Positions

Ginga

Last reported at 2016-Jul-25 01:33 UTC. Time now 2016-Jul-25 14:00 UTC.
Position N 34°39' E 135°10'.

Length 28 m; draft 1.6 m.

Type: Other ship. MMSI: 431301704.

Date/timePositionNaut miles runAvg speedWind from/ knotsBaromVisibWave heightAir tempDewpointWater temp
2016-Jul-25 01:33N 34°39' E 135°10'10 3.3
2016-Jul-24 22:31N 34°37' E 134°58'7 7.1
2016-Jul-24 21:33N 34°35' E 135°06'5 4.9
2016-Jul-24 20:33N 34°38' E 135°10'1 0.0
2016-Jul-23 22:20N 34°39' E 135°09'1012.2
2016-Jul-23 21:33N 34°38' E 134°58'7 7.4
2016-Jul-23 20:33N 34°35' E 135°06'4 4.4
2016-Jul-23 19:33N 34°35' E 135°11'5 0.3
2016-Jul-23 04:17N 34°39' E 135°09'6 3.3
2016-Jul-23 02:30N 34°38' E 135°03'4 0.6
2016-Jul-22 19:33N 34°37' E 134°58'9 8.5
2016-Jul-22 18:33N 34°34' E 135°08'5 4.8
2016-Jul-22 17:33N 34°39' E 135°09'11 0.9
2016-Jul-22 04:16N 34°36' E 134°56'1 0.1
2016-Jul-21 19:32N 34°37' E 134°57'8 8.4
2016-Jul-21 18:32N 34°35' E 135°06'2 2.0
2016-Jul-21 17:34N 34°35' E 135°09'4 0.5
2016-Jul-21 08:09N 34°39' E 135°09'610.4
2016-Jul-21 07:32N 34°36' E 135°03'2 1.5
2016-Jul-21 06:22N 34°38' E 135°03'4 0.3
2016-Jul-20 19:28N 34°37' E 134°58'7 7.1
2016-Jul-20 18:32N 34°35' E 135°06'5 5.1
2016-Jul-20 17:33N 34°39' E 135°09'0 0.0
2016-Jul-20 04:32N 34°39' E 135°09'9 8.7
2016-Jul-20 03:33N 34°38' E 134°59'3 3.0
2016-Jul-20 02:33N 34°36' E 135°02'1 1.4
2016-Jul-20 01:32N 34°38' E 135°02'1 0.1
2016-Jul-19 20:11N 34°37' E 135°03'4 6.3
2016-Jul-19 19:33N 34°37' E 134°58'8 8.0
2016-Jul-19 18:33N 34°35' E 135°07'4 0.7
2016-Jul-19 12:33N 34°37' E 135°03'4 3.7
2016-Jul-19 11:24N 34°38' E 134°58'911.1
2016-Jul-19 10:33N 34°39' E 135°09'0 0.0
2016-Jul-19 03:16N 34°39' E 135°09'5 3.0
2016-Jul-19 01:33N 34°35' E 135°05'3 0.8
2016-Jul-18 22:17N 34°38' E 135°03'5 7.0
2016-Jul-18 21:31N 34°36' E 134°57'0 0.1
2016-Jul-18 18:29N 34°37' E 134°57'7 7.8
2016-Jul-18 17:33N 34°35' E 135°05'5 5.0
2016-Jul-18 16:33N 34°39' E 135°09'0 0.0
2016-Jul-17 20:15N 34°39' E 135°09'811.4
2016-Jul-17 19:30N 34°38' E 134°59'7 7.3
2016-Jul-17 18:33N 34°35' E 135°07'2 2.3
2016-Jul-17 17:33N 34°36' E 135°09'3 3.5
2016-Jul-17 16:33N 34°39' E 135°09'2 0.0
2016-Jul-16 03:34N 34°40' E 135°11'8 8.3
2016-Jul-16 02:32N 34°36' E 135°02'2 0.2
2016-Jul-15 19:16N 34°37' E 135°03'2 2.0
2016-Jul-15 18:29N 34°37' E 135°01'7 7.4
2016-Jul-15 17:33N 34°38' E 135°10'1 0.1
2016-Jul-15 09:33N 34°37' E 135°09'15 7.4
2016-Jul-15 07:28N 34°23' E 135°02'1314.5
2016-Jul-15 06:33N 34°31' E 135°15'9 8.4
2016-Jul-15 05:32N 34°33' E 135°25'0 0.5
2016-Jul-15 04:31N 34°33' E 135°25'1313.5
2016-Jul-15 03:33N 34°36' E 135°10'  

Dump ship's entire track history